createdAt,value
2019-01-11T00:00:05.742Z,10.60
2019-01-11T00:01:14.903Z,23.02
2019-01-11T00:02:19.759Z,19.30
2019-01-11T00:03:25.269Z,20.57
2019-01-11T00:04:30.084Z,9.85
2019-01-11T00:05:35.003Z,15.45
2019-01-11T00:06:39.874Z,12.40
2019-01-11T00:07:44.804Z,17.90
2019-01-11T00:08:49.933Z,12.00
2019-01-11T00:09:54.851Z,14.95
2019-01-11T00:10:59.847Z,12.13
2019-01-11T00:12:04.894Z,19.42
2019-01-11T00:13:10.007Z,16.80
2019-01-11T00:14:14.998Z,13.48
2019-01-11T00:15:20.040Z,18.62
2019-01-11T00:16:24.987Z,11.55
2019-01-11T00:17:29.958Z,11.97
2019-01-11T00:18:37.343Z,22.60
2019-01-11T00:19:42.360Z,14.50
2019-01-11T00:20:50.495Z,13.03
2019-01-11T00:21:55.319Z,13.62
2019-01-11T00:23:00.463Z,12.37
2019-01-11T00:24:06.311Z,16.77
2019-01-11T00:25:11.246Z,11.45
2019-01-11T00:26:16.413Z,13.70
2019-01-11T00:27:21.421Z,16.48
2019-01-11T00:28:26.141Z,11.97
2019-01-11T00:29:31.354Z,13.85
2019-01-11T00:30:36.357Z,17.70
2019-01-11T00:31:41.275Z,9.60
2019-01-11T00:32:49.460Z,13.50
2019-01-11T00:33:54.182Z,11.28
2019-01-11T00:34:59.059Z,18.85
2019-01-11T00:36:04.279Z,17.23
2019-01-11T00:37:09.324Z,14.18
2019-01-11T00:38:14.322Z,11.57
2019-01-11T00:39:19.260Z,14.18
2019-01-11T00:40:24.131Z,19.05
2019-01-11T00:41:29.449Z,19.77
2019-01-11T00:42:34.250Z,18.77
2019-01-11T00:43:39.147Z,23.73
2019-01-11T00:44:43.858Z,14.63
2019-01-11T00:45:48.753Z,19.50
2019-01-11T00:46:53.907Z,16.80
2019-01-11T00:47:58.999Z,17.23
2019-01-11T00:49:04.321Z,19.75
2019-01-11T00:50:09.661Z,37.25
2019-01-11T00:51:14.362Z,11.83
2019-01-11T00:52:19.380Z,29.02
2019-01-11T00:53:24.728Z,15.83
2019-01-11T00:54:30.897Z,17.45
2019-01-11T00:55:36.005Z,15.48
2019-01-11T00:56:41.012Z,11.20
2019-01-11T00:57:46.023Z,15.98
2019-01-11T00:58:51.164Z,28.07
2019-01-11T00:59:56.229Z,12.35
2019-01-11T01:01:01.477Z,14.58
2019-01-11T01:02:07.091Z,14.30
2019-01-11T01:03:12.239Z,23.00
2019-01-11T01:04:17.055Z,18.42
2019-01-11T01:05:22.050Z,23.35
2019-01-11T01:06:27.062Z,20.02
2019-01-11T01:07:32.293Z,27.27
2019-01-11T01:08:37.070Z,18.48
2019-01-11T01:09:42.379Z,15.55
2019-01-11T01:10:47.372Z,23.52
2019-01-11T01:11:52.340Z,22.67
2019-01-11T01:12:57.235Z,15.70
2019-01-11T01:14:02.464Z,21.25
2019-01-11T01:15:09.961Z,25.48
2019-01-11T01:16:14.800Z,17.52
2019-01-11T01:17:19.660Z,17.95
2019-01-11T01:18:24.524Z,19.30
2019-01-11T01:19:29.443Z,16.07
2019-01-11T01:20:34.430Z,21.37
2019-01-11T01:21:39.184Z,14.05
2019-01-11T01:22:44.266Z,14.87
2019-01-11T01:23:49.000Z,20.10
2019-01-11T01:24:53.775Z,16.87
2019-01-11T01:25:58.739Z,22.02
2019-01-11T01:27:04.025Z,21.33
2019-01-11T01:28:09.055Z,18.10
2019-01-11T01:29:13.847Z,16.80
2019-01-11T01:30:19.119Z,18.60
2019-01-11T01:31:24.326Z,16.82
2019-01-11T01:32:29.231Z,15.10
2019-01-11T01:33:34.111Z,14.80
2019-01-11T01:34:38.939Z,16.30
2019-01-11T01:35:43.702Z,17.80
2019-01-11T01:36:48.502Z,15.10
2019-01-11T01:37:53.510Z,18.70
2019-01-11T01:38:58.363Z,19.32
2019-01-11T01:40:03.192Z,20.35
2019-01-11T01:41:08.286Z,18.65
2019-01-11T01:42:13.211Z,12.88
2019-01-11T01:43:18.310Z,19.98
2019-01-11T01:44:23.102Z,16.52
2019-01-11T01:45:28.184Z,17.07
2019-01-11T01:46:33.018Z,19.87
2019-01-11T01:47:37.898Z,19.80
2019-01-11T01:48:42.892Z,22.30
2019-01-11T01:49:47.790Z,16.37
2019-01-11T01:50:52.533Z,24.12
2019-01-11T01:51:57.313Z,19.17
2019-01-11T01:53:02.347Z,24.20
2019-01-11T01:54:07.455Z,19.00
2019-01-11T01:55:12.653Z,21.87
2019-01-11T01:56:17.530Z,20.97
2019-01-11T01:57:25.195Z,21.50
2019-01-11T01:58:30.014Z,27.82
2019-01-11T01:59:34.800Z,17.67
2019-01-11T02:00:39.845Z,20.12
2019-01-11T02:01:51.321Z,31.70
2019-01-11T02:02:56.145Z,18.60
2019-01-11T02:04:01.764Z,16.73
2019-01-11T02:05:07.896Z,20.00
2019-01-11T02:06:12.890Z,19.02
2019-01-11T02:07:17.831Z,19.37
2019-01-11T02:08:22.639Z,30.72
2019-01-11T02:09:27.707Z,19.85
2019-01-11T02:10:32.790Z,26.87
2019-01-11T02:11:37.621Z,22.62
2019-01-11T02:12:44.170Z,20.82
2019-01-11T02:13:48.992Z,19.85
2019-01-11T02:14:53.828Z,17.82
2019-01-11T02:15:59.354Z,18.77
2019-01-11T02:17:04.548Z,24.52
2019-01-11T02:18:09.363Z,19.50
2019-01-11T02:19:14.086Z,33.02
2019-01-11T02:20:19.533Z,21.97
2019-01-11T02:21:24.432Z,24.40
2019-01-11T02:22:29.811Z,22.10
2019-01-11T02:23:34.758Z,33.98
2019-01-11T02:24:39.584Z,31.10
2019-01-11T02:25:46.303Z,25.85
2019-01-11T02:26:51.177Z,18.77
2019-01-11T02:27:59.167Z,28.57
2019-01-11T02:29:04.463Z,27.52
2019-01-11T02:30:13.225Z,21.73
2019-01-11T02:31:18.320Z,36.25
2019-01-11T02:32:23.421Z,44.48
2019-01-11T02:33:28.441Z,27.98
2019-01-11T02:34:33.393Z,25.90
2019-01-11T02:35:38.786Z,24.80
2019-01-11T02:36:43.751Z,34.92
2019-01-11T02:37:48.616Z,32.00
2019-01-11T02:38:53.421Z,22.13
2019-01-11T02:39:58.291Z,27.52
2019-01-11T02:41:03.107Z,22.15
2019-01-11T02:42:07.854Z,23.60
2019-01-11T02:43:12.669Z,25.37
2019-01-11T02:44:17.498Z,21.73
2019-01-11T02:45:22.744Z,28.00
2019-01-11T02:46:27.689Z,21.70
2019-01-11T02:47:32.898Z,27.42
2019-01-11T02:48:37.674Z,25.43
2019-01-11T02:49:42.696Z,27.22
2019-01-11T02:50:47.782Z,29.23
2019-01-11T02:51:52.758Z,29.25
2019-01-11T02:52:57.505Z,19.32
2019-01-11T02:54:02.376Z,25.32
2019-01-11T02:55:08.301Z,17.85
2019-01-11T02:56:13.151Z,24.95
2019-01-11T02:57:18.003Z,25.85
2019-01-11T02:58:22.832Z,23.20
2019-01-11T02:59:27.661Z,31.85
2019-01-11T03:00:33.832Z,26.07
2019-01-11T03:01:38.707Z,22.95
2019-01-11T03:02:43.715Z,23.32
2019-01-11T03:03:48.490Z,43.60
2019-01-11T03:04:53.286Z,45.65
2019-01-11T03:05:58.160Z,128.65
2019-01-11T03:07:02.926Z,53.83
2019-01-11T03:08:07.968Z,38.85
2019-01-11T03:09:12.930Z,27.55
2019-01-11T03:10:19.590Z,29.37
2019-01-11T03:11:24.569Z,24.37
2019-01-11T03:12:29.429Z,29.55
2019-01-11T03:13:34.302Z,23.80
2019-01-11T03:14:39.142Z,21.73
2019-01-11T03:15:43.895Z,20.82
2019-01-11T03:16:49.243Z,27.90
2019-01-11T03:17:54.089Z,28.75
2019-01-11T03:18:58.856Z,27.15
2019-01-11T03:20:03.634Z,28.27
2019-01-11T03:21:08.414Z,24.57
2019-01-11T03:22:13.261Z,32.20
2019-01-11T03:23:18.145Z,20.23
2019-01-11T03:24:22.933Z,22.75
2019-01-11T03:25:27.762Z,23.77
2019-01-11T03:26:32.795Z,26.48
2019-01-11T03:27:37.717Z,28.62
2019-01-11T03:28:42.549Z,28.67
2019-01-11T03:29:47.464Z,31.85
2019-01-11T03:30:52.256Z,25.40
2019-01-11T03:31:57.067Z,24.00
2019-01-11T03:33:01.861Z,32.13
2019-01-11T03:34:06.708Z,25.75
2019-01-11T03:35:21.906Z,26.45
2019-01-11T03:36:26.636Z,23.73
2019-01-11T03:37:31.596Z,38.65
2019-01-11T03:38:36.352Z,21.95
2019-01-11T03:39:41.148Z,26.12
2019-01-11T03:40:45.905Z,28.23
2019-01-11T03:41:59.170Z,31.97
2019-01-11T03:43:04.409Z,24.27
2019-01-11T03:44:09.380Z,23.73
2019-01-11T03:45:15.852Z,25.62
2019-01-11T03:46:20.824Z,25.55
2019-01-11T03:47:26.027Z,32.25
2019-01-11T03:48:31.226Z,23.83
2019-01-11T03:49:36.107Z,26.62
2019-01-11T03:50:41.100Z,27.25
2019-01-11T03:51:45.870Z,26.77
2019-01-11T03:52:50.911Z,23.85
2019-01-11T03:53:56.152Z,26.25
2019-01-11T03:55:01.176Z,28.30
2019-01-11T03:56:06.521Z,25.88
2019-01-11T03:57:11.844Z,25.75
2019-01-11T03:58:16.649Z,28.95
2019-01-11T03:59:21.444Z,26.50
2019-01-11T04:00:26.314Z,28.05
2019-01-11T04:01:31.052Z,26.25
2019-01-11T04:02:36.301Z,31.97
2019-01-11T04:03:41.195Z,32.08
2019-01-11T04:04:46.426Z,31.05
2019-01-11T04:05:51.404Z,32.63
2019-01-11T04:06:56.473Z,39.45
2019-01-11T04:08:01.403Z,31.27
2019-01-11T04:09:09.957Z,35.65
2019-01-11T04:10:17.387Z,29.98
2019-01-11T04:11:22.228Z,33.48
2019-01-11T04:12:27.249Z,30.65
2019-01-11T04:13:32.044Z,35.90
2019-01-11T04:14:36.964Z,35.25
2019-01-11T04:15:42.089Z,29.42
2019-01-11T04:16:46.949Z,31.05
2019-01-11T04:18:23.583Z,40.80
2019-01-11T04:19:28.313Z,27.98
2019-01-11T04:20:36.078Z,26.42
2019-01-11T04:21:42.587Z,27.30
2019-01-11T04:22:57.727Z,34.23
2019-01-11T04:24:02.519Z,27.50
2019-01-11T04:25:09.563Z,33.25
2019-01-11T04:26:14.436Z,29.40
2019-01-11T04:27:19.554Z,35.98
2019-01-11T04:28:24.541Z,29.85
2019-01-11T04:29:30.086Z,31.17
2019-01-11T04:30:34.993Z,29.95
2019-01-11T04:31:39.687Z,37.85
2019-01-11T04:32:44.554Z,28.52
2019-01-11T04:33:49.567Z,32.30
2019-01-11T04:34:54.391Z,31.15
2019-01-11T04:35:59.637Z,31.25
2019-01-11T04:37:04.383Z,34.95
2019-01-11T04:38:09.354Z,33.13
2019-01-11T04:39:14.401Z,29.75
2019-01-11T04:40:20.104Z,29.32
2019-01-11T04:41:24.910Z,35.33
2019-01-11T04:42:30.191Z,36.55
2019-01-11T04:43:35.096Z,33.50
2019-01-11T04:44:39.896Z,29.15
2019-01-11T04:45:44.718Z,28.02
2019-01-11T04:46:49.577Z,32.63
2019-01-11T04:47:54.471Z,34.45
2019-01-11T04:48:59.719Z,28.05
2019-01-11T04:50:09.363Z,31.05
2019-01-11T04:51:11.290Z,28.98
2019-01-11T04:54:22.671Z,31.85
2019-01-11T04:55:27.834Z,30.45
2019-01-11T04:56:32.971Z,36.70
2019-01-11T04:57:37.950Z,31.20
2019-01-11T04:58:43.116Z,35.17
2019-01-11T04:59:48.031Z,28.05
2019-01-11T05:00:53.028Z,35.68
2019-01-11T05:01:58.368Z,30.77
2019-01-11T05:03:03.399Z,34.73
2019-01-11T05:04:08.231Z,32.17
2019-01-11T05:05:13.440Z,39.13
2019-01-11T05:06:18.458Z,30.70
2019-01-11T05:07:23.482Z,35.90
2019-01-11T05:08:28.878Z,33.90
2019-01-11T05:09:33.740Z,33.25
2019-01-11T05:10:38.569Z,33.40
2019-01-11T05:11:43.461Z,32.53
2019-01-11T05:12:48.506Z,32.98
2019-01-11T05:13:56.486Z,43.58
2019-01-11T05:15:01.738Z,33.28
2019-01-11T05:16:06.848Z,30.62
2019-01-11T05:17:11.917Z,29.92
2019-01-11T05:18:16.838Z,30.08
2019-01-11T05:19:21.633Z,37.25
2019-01-11T05:20:26.514Z,36.55
2019-01-11T05:21:31.535Z,30.88
2019-01-11T05:22:36.382Z,34.40
2019-01-11T05:23:41.318Z,33.13
2019-01-11T05:24:46.199Z,32.75
2019-01-11T05:25:51.081Z,30.55
2019-01-11T05:27:03.106Z,37.95
2019-01-11T05:28:08.153Z,34.08
2019-01-11T05:29:13.094Z,35.85
2019-01-11T05:30:19.429Z,38.78
2019-01-11T05:31:24.251Z,33.33
2019-01-11T05:32:29.042Z,30.57
2019-01-11T05:33:33.845Z,39.75
2019-01-11T05:34:38.830Z,36.20
2019-01-11T05:35:43.651Z,30.35
2019-01-11T05:36:48.447Z,39.63
2019-01-11T05:37:56.328Z,32.50
2019-01-11T05:39:01.148Z,45.45
2019-01-11T05:40:08.131Z,42.80
2019-01-11T05:41:12.930Z,40.55
2019-01-11T05:42:17.930Z,31.75
2019-01-11T05:43:22.806Z,36.75
2019-01-11T05:44:27.712Z,42.27
2019-01-11T05:45:34.033Z,35.75
2019-01-11T05:46:38.828Z,33.98
2019-01-11T05:47:43.659Z,43.58
2019-01-11T05:48:48.501Z,39.67
2019-01-11T05:49:53.950Z,66.02
2019-01-11T05:50:58.804Z,56.18
2019-01-11T05:52:03.581Z,73.00
2019-01-11T05:53:10.131Z,56.15
2019-01-11T05:54:14.978Z,39.78
2019-01-11T05:55:33.554Z,49.00
2019-01-11T05:56:38.491Z,39.23
2019-01-11T05:58:02.581Z,34.23
2019-01-11T05:59:08.396Z,30.30
2019-01-11T06:00:13.453Z,34.18
2019-01-11T06:01:18.394Z,32.23
2019-01-11T06:02:23.214Z,36.68
2019-01-11T06:03:28.232Z,33.55
2019-01-11T06:04:44.310Z,28.83
2019-01-11T06:05:49.125Z,29.27
2019-01-11T06:07:25.027Z,31.25
2019-01-11T06:08:34.867Z,29.18
2019-01-11T06:09:39.712Z,29.32
2019-01-11T06:10:44.539Z,34.15
2019-01-11T06:11:49.361Z,30.52
2019-01-11T06:12:54.265Z,32.30
2019-01-11T06:13:59.217Z,35.95
2019-01-11T06:15:05.010Z,31.77
2019-01-11T06:16:09.961Z,31.10
2019-01-11T06:17:14.749Z,30.10
2019-01-11T06:18:19.674Z,28.77
2019-01-11T06:19:24.657Z,29.48
2019-01-11T06:20:30.441Z,26.60
2019-01-11T06:21:35.562Z,32.30
2019-01-11T06:22:40.398Z,29.20
2019-01-11T06:23:45.375Z,30.88
2019-01-11T06:24:50.309Z,31.00
2019-01-11T06:25:55.433Z,31.77
2019-01-11T06:27:00.681Z,34.48
2019-01-11T06:28:05.614Z,32.90
2019-01-11T06:29:18.830Z,33.00
2019-01-11T06:30:24.233Z,26.70
2019-01-11T06:31:29.513Z,26.73
2019-01-11T06:32:34.393Z,33.90
2019-01-11T06:33:39.321Z,32.28
2019-01-11T06:34:44.364Z,30.45
2019-01-11T06:35:49.415Z,44.15
2019-01-11T06:36:55.931Z,38.23
2019-01-11T06:38:00.764Z,42.15
2019-01-11T06:39:08.178Z,37.85
2019-01-11T06:40:14.769Z,38.33
2019-01-11T06:41:20.214Z,38.00
2019-01-11T06:42:26.845Z,31.93
2019-01-11T06:43:31.959Z,36.38
2019-01-11T06:44:38.998Z,30.68
2019-01-11T06:45:43.330Z,26.95
2019-01-11T06:46:48.145Z,36.90
2019-01-11T06:47:53.026Z,31.02
2019-01-11T06:48:58.382Z,27.35
2019-01-11T06:50:03.218Z,31.02
2019-01-11T06:51:08.153Z,36.17
2019-01-11T06:52:15.582Z,29.55
2019-01-11T06:53:20.913Z,30.08
2019-01-11T06:54:49.194Z,29.30
2019-01-11T06:55:54.042Z,30.15
2019-01-11T06:56:58.857Z,27.10
2019-01-11T06:58:03.804Z,30.65
2019-01-11T06:59:12.343Z,26.77
2019-01-11T07:00:17.532Z,34.25
2019-01-11T07:01:22.883Z,34.92
2019-01-11T07:02:27.823Z,28.60
2019-01-11T07:03:32.982Z,40.80
2019-01-11T07:04:37.729Z,27.82
2019-01-11T07:05:42.689Z,37.13
2019-01-11T07:06:47.561Z,32.65
2019-01-11T07:07:52.353Z,32.08
2019-01-11T07:08:57.478Z,28.73
2019-01-11T07:10:02.378Z,29.12
2019-01-11T07:11:07.456Z,36.77
2019-01-11T07:12:12.301Z,28.32
2019-01-11T07:13:17.096Z,28.73
2019-01-11T07:14:21.903Z,28.40
2019-01-11T07:15:27.043Z,32.93
2019-01-11T07:16:31.958Z,27.22
2019-01-11T07:17:36.804Z,31.90
2019-01-11T07:18:45.130Z,26.87
2019-01-11T07:19:50.332Z,30.23
2019-01-11T07:20:55.177Z,30.75
2019-01-11T07:22:00.014Z,29.20
2019-01-11T07:23:04.978Z,39.13
2019-01-11T07:24:10.162Z,30.30
2019-01-11T07:25:15.519Z,38.00
2019-01-11T07:26:20.452Z,32.83
2019-01-11T07:27:26.578Z,33.18
2019-01-11T07:28:31.896Z,29.65
2019-01-11T07:29:36.859Z,30.15
2019-01-11T07:31:06.581Z,27.48
2019-01-11T07:32:11.472Z,30.02
2019-01-11T07:33:27.286Z,28.47
2019-01-11T07:34:32.590Z,36.13
2019-01-11T07:35:50.824Z,30.57
2019-01-11T07:36:57.196Z,31.15
2019-01-11T07:38:02.111Z,35.20
2019-01-11T07:39:26.741Z,28.87
2019-01-11T07:40:33.096Z,35.17
2019-01-11T07:41:38.079Z,34.45
2019-01-11T07:42:43.501Z,32.33
2019-01-11T07:43:48.449Z,29.45
2019-01-11T07:44:53.524Z,30.23
2019-01-11T07:45:58.422Z,36.10
2019-01-11T07:47:03.446Z,28.05
2019-01-11T07:48:09.511Z,29.32
2019-01-11T07:49:15.329Z,31.60
2019-01-11T07:50:20.317Z,33.10
2019-01-11T07:51:25.302Z,31.15
2019-01-11T07:52:36.329Z,31.05
2019-01-11T07:53:41.246Z,35.45
2019-01-11T07:54:46.808Z,42.35
2019-01-11T07:55:51.800Z,37.95
2019-01-11T07:57:00.034Z,32.23
2019-01-11T07:58:05.188Z,32.03
2019-01-11T07:59:10.243Z,32.70
2019-01-11T08:00:25.691Z,33.70
2019-01-11T08:01:38.732Z,37.80
2019-01-11T08:02:43.998Z,33.85
2019-01-11T08:03:49.063Z,33.18
2019-01-11T08:04:54.019Z,27.40
2019-01-11T08:05:59.134Z,30.12
2019-01-11T08:07:07.505Z,25.37
2019-01-11T08:08:11.646Z,27.10
2019-01-11T08:09:16.698Z,29.37
2019-01-11T08:10:21.842Z,29.90
2019-01-11T08:11:26.782Z,25.88
2019-01-11T08:12:32.645Z,29.18
2019-01-11T08:13:40.846Z,26.45
2019-01-11T08:14:46.033Z,25.85
2019-01-11T08:15:50.961Z,24.95
2019-01-11T08:16:56.088Z,25.43
2019-01-11T08:18:01.191Z,25.77
2019-01-11T08:19:06.599Z,27.65
2019-01-11T08:20:11.775Z,25.72
2019-01-11T08:21:16.740Z,25.92
2019-01-11T08:22:43.355Z,26.23
2019-01-11T08:23:48.245Z,24.98
2019-01-11T08:25:02.096Z,25.50
2019-01-11T08:26:07.092Z,26.45
2019-01-11T08:27:12.026Z,29.27
2019-01-11T08:28:18.329Z,29.18
2019-01-11T08:29:23.241Z,27.67
2019-01-11T08:30:28.320Z,27.37
2019-01-11T08:31:36.617Z,26.23
2019-01-11T08:32:41.548Z,27.87
2019-01-11T08:33:46.726Z,25.90
2019-01-11T08:34:51.906Z,27.58
2019-01-11T08:36:00.014Z,39.45
2019-01-11T08:37:05.880Z,33.50
2019-01-11T08:38:11.416Z,29.57
2019-01-11T08:39:16.609Z,28.70
2019-01-11T08:40:21.559Z,32.53
2019-01-11T08:41:28.431Z,32.42
2019-01-11T08:42:34.804Z,30.08
2019-01-11T08:43:40.301Z,30.10
2019-01-11T08:44:47.184Z,34.80
2019-01-11T08:45:55.989Z,29.90
2019-01-11T08:47:01.340Z,27.07
2019-01-11T08:48:07.683Z,33.28
2019-01-11T08:49:12.597Z,30.75
2019-01-11T08:50:19.264Z,30.50
2019-01-11T08:51:27.573Z,26.97
2019-01-11T08:52:33.282Z,32.13
2019-01-11T08:53:38.213Z,26.42
2019-01-11T08:54:43.191Z,31.50
2019-01-11T08:55:48.271Z,28.23
2019-01-11T08:56:53.837Z,32.42
2019-01-11T08:58:03.017Z,34.03
2019-01-11T08:59:14.490Z,30.85
2019-01-11T09:00:19.429Z,27.22
2019-01-11T09:01:24.805Z,26.00
2019-01-11T09:02:30.093Z,32.08
2019-01-11T09:03:35.327Z,31.00
2019-01-11T09:04:40.323Z,29.27
2019-01-11T09:05:45.149Z,29.85
2019-01-11T09:06:50.207Z,29.77
2019-01-11T09:07:55.081Z,27.50
2019-01-11T09:09:00.017Z,31.60
2019-01-11T09:10:06.064Z,27.13
2019-01-11T09:11:11.093Z,26.30
2019-01-11T09:12:17.263Z,27.70
2019-01-11T09:13:29.062Z,26.27
2019-01-11T09:14:50.657Z,26.12
2019-01-11T09:15:55.953Z,28.77
2019-01-11T09:17:00.785Z,26.65
2019-01-11T09:18:13.550Z,24.82
2019-01-11T09:19:20.074Z,24.75
2019-01-11T09:20:25.090Z,27.17
2019-01-11T09:21:29.934Z,27.50
2019-01-11T09:22:35.251Z,26.52
2019-01-11T09:23:40.211Z,29.35
2019-01-11T09:24:48.524Z,25.60
2019-01-11T09:25:55.663Z,29.60
2019-01-11T09:27:02.463Z,27.62
2019-01-11T09:28:07.992Z,31.60
2019-01-11T09:29:12.958Z,29.42
2019-01-11T09:30:17.793Z,30.85
2019-01-11T09:31:22.777Z,27.42
2019-01-11T09:32:27.582Z,27.05
2019-01-11T09:33:32.426Z,25.52
2019-01-11T09:34:41.561Z,28.70
2019-01-11T09:35:49.454Z,24.65
2019-01-11T09:36:54.475Z,30.55
2019-01-11T09:38:00.075Z,26.25
2019-01-11T09:39:10.783Z,27.22
2019-01-11T09:40:16.434Z,32.15
2019-01-11T09:41:24.329Z,26.65
2019-01-11T09:42:29.147Z,28.80
2019-01-11T09:43:35.284Z,24.02
2019-01-11T09:44:40.217Z,33.20
2019-01-11T09:45:45.050Z,27.50
2019-01-11T09:46:50.345Z,26.17
2019-01-11T09:47:56.763Z,26.97
2019-01-11T09:49:01.661Z,30.97
2019-01-11T09:50:07.465Z,34.03
2019-01-11T09:51:15.863Z,29.02
2019-01-11T09:52:19.070Z,28.98
2019-01-11T09:53:26.040Z,28.23
2019-01-11T09:54:30.929Z,27.62
2019-01-11T09:55:35.801Z,30.92
2019-01-11T09:56:40.899Z,29.55
2019-01-11T09:57:45.730Z,29.05
2019-01-11T09:58:53.600Z,28.35
2019-01-11T09:59:58.541Z,29.10
2019-01-11T10:01:03.556Z,32.90
2019-01-11T10:02:25.738Z,30.00
2019-01-11T10:03:30.653Z,26.07
2019-01-11T10:04:40.855Z,31.00
2019-01-11T10:05:45.857Z,26.95
2019-01-11T10:07:07.642Z,34.25
2019-01-11T10:08:15.061Z,29.40
2019-01-11T10:09:20.282Z,27.98
2019-01-11T10:10:25.363Z,26.95
2019-01-11T10:11:30.316Z,28.10
2019-01-11T10:12:35.162Z,29.45
2019-01-11T10:13:39.992Z,27.45
2019-01-11T10:14:44.935Z,32.60
2019-01-11T10:15:49.821Z,28.75
2019-01-11T10:16:54.766Z,30.35
2019-01-11T10:17:59.686Z,30.95
2019-01-11T10:19:04.499Z,32.20
2019-01-11T10:20:10.421Z,30.60
2019-01-11T10:21:15.294Z,33.92
2019-01-11T10:22:20.217Z,27.75
2019-01-11T10:23:32.285Z,29.92
2019-01-11T10:24:37.947Z,31.23
2019-01-11T10:25:46.118Z,33.58
2019-01-11T10:26:55.696Z,48.63
2019-01-11T10:28:05.799Z,29.70
2019-01-11T10:29:12.449Z,24.95
2019-01-11T10:30:21.016Z,25.85
2019-01-11T10:31:25.445Z,34.13
2019-01-11T10:32:30.314Z,35.35
2019-01-11T10:33:36.270Z,28.38
2019-01-11T10:34:44.382Z,28.12
2019-01-11T10:35:49.761Z,29.15
2019-01-11T10:36:54.586Z,35.43
2019-01-11T10:38:00.973Z,28.73
2019-01-11T10:39:08.305Z,31.20
2019-01-11T10:40:14.985Z,30.45
2019-01-11T10:41:23.195Z,31.00
2019-01-11T10:42:32.713Z,28.02
2019-01-11T10:43:37.737Z,30.62
2019-01-11T10:44:42.574Z,31.90
2019-01-11T10:45:47.560Z,27.85
2019-01-11T10:46:56.745Z,30.70
2019-01-11T10:48:02.965Z,29.72
2019-01-11T10:49:07.796Z,28.83
2019-01-11T10:50:15.090Z,30.50
2019-01-11T10:51:19.982Z,29.50
2019-01-11T10:52:29.011Z,33.80
2019-01-11T10:53:34.020Z,30.57
2019-01-11T10:54:43.469Z,31.77
2019-01-11T10:55:48.344Z,44.42
2019-01-11T10:56:56.432Z,29.15
2019-01-11T10:58:01.499Z,28.50
2019-01-11T10:59:06.586Z,30.17
2019-01-11T11:00:21.179Z,29.05
2019-01-11T11:01:31.068Z,33.23
2019-01-11T11:02:35.938Z,34.35
2019-01-11T11:03:40.794Z,29.27
2019-01-11T11:04:47.750Z,33.98
2019-01-11T11:05:52.655Z,33.95
2019-01-11T11:07:09.995Z,30.32
2019-01-11T11:08:14.882Z,33.83
2019-01-11T11:09:19.788Z,32.90
2019-01-11T11:10:29.257Z,34.53
2019-01-11T11:11:34.576Z,37.10
2019-01-11T11:12:39.937Z,35.43
2019-01-11T11:13:46.545Z,35.23
2019-01-11T11:15:00.623Z,31.12
2019-01-11T11:16:10.804Z,34.27
2019-01-11T11:17:19.705Z,42.90
2019-01-11T11:18:25.180Z,34.40
2019-01-11T11:19:32.801Z,35.78
2019-01-11T11:20:40.557Z,33.58
2019-01-11T11:21:45.474Z,41.60
2019-01-11T11:22:50.563Z,43.70
2019-01-11T11:23:55.427Z,45.03
2019-01-11T11:25:03.444Z,37.40
2019-01-11T11:26:08.298Z,36.30
2019-01-11T11:27:16.001Z,41.88
2019-01-11T11:28:24.185Z,35.52
2019-01-11T11:29:32.414Z,35.17
2019-01-11T11:30:40.817Z,40.75
2019-01-11T11:31:45.615Z,45.25
2019-01-11T11:32:58.900Z,43.52
2019-01-11T11:34:05.752Z,42.05
2019-01-11T11:35:12.053Z,40.55
2019-01-11T11:36:17.194Z,45.12
2019-01-11T11:37:23.729Z,54.05
2019-01-11T11:38:28.592Z,59.80
2019-01-11T11:39:33.696Z,51.92
2019-01-11T11:40:40.722Z,47.38
2019-01-11T11:41:47.809Z,57.83
2019-01-11T11:42:55.505Z,68.95
2019-01-11T11:44:03.145Z,44.48
2019-01-11T11:45:08.585Z,279.65
2019-01-11T11:46:25.140Z,227.13
2019-01-11T11:47:28.753Z,85.28
2019-01-11T11:48:34.034Z,53.38
2019-01-11T11:49:42.378Z,54.23
2019-01-11T11:50:49.260Z,61.02
2019-01-11T11:51:55.790Z,49.42
2019-01-11T11:53:01.083Z,57.60
2019-01-11T11:54:06.340Z,47.73
2019-01-11T11:55:14.473Z,47.53
2019-01-11T11:56:19.354Z,48.98
2019-01-11T11:57:25.642Z,45.15
2019-01-11T11:58:30.781Z,44.65
2019-01-11T11:59:36.187Z,43.68
2019-01-11T12:00:41.123Z,43.50
2019-01-11T12:01:46.810Z,53.33
2019-01-11T12:02:51.957Z,56.75
2019-01-11T12:03:59.461Z,46.80
2019-01-11T12:05:07.185Z,47.05
2019-01-11T12:06:12.373Z,53.68
2019-01-11T12:07:26.380Z,53.13
2019-01-11T12:08:28.986Z,48.05
2019-01-11T12:09:34.061Z,55.10
2019-01-11T12:10:42.015Z,54.75
2019-01-11T12:11:47.304Z,52.78
2019-01-11T12:12:52.397Z,41.58
2019-01-11T12:13:57.591Z,57.73
2019-01-11T12:15:04.087Z,57.95
2019-01-11T12:16:09.060Z,53.50
2019-01-11T12:17:16.083Z,46.77
2019-01-11T12:18:23.050Z,50.03
2019-01-11T12:19:28.026Z,48.05
2019-01-11T12:20:41.670Z,50.78
2019-01-11T12:21:47.904Z,43.40
2019-01-11T12:22:53.180Z,45.20
2019-01-11T12:23:58.574Z,51.02
2019-01-11T12:25:07.504Z,49.18
2019-01-11T12:26:13.489Z,56.65
2019-01-11T12:27:21.146Z,59.15
2019-01-11T12:28:26.147Z,53.10
2019-01-11T12:29:31.190Z,57.83
2019-01-11T12:30:36.352Z,47.00
2019-01-11T12:31:41.545Z,50.55
2019-01-11T12:32:46.701Z,47.40
2019-01-11T12:33:53.337Z,57.40
2019-01-11T12:34:58.442Z,57.23
2019-01-11T12:36:05.761Z,46.95
2019-01-11T12:37:11.192Z,55.35
2019-01-11T12:38:16.077Z,42.45
2019-01-11T12:39:30.226Z,45.08
2019-01-11T12:40:35.257Z,55.03
2019-01-11T12:41:40.273Z,50.15
2019-01-11T12:42:48.281Z,62.13
2019-01-11T12:44:00.753Z,58.70
2019-01-11T12:45:09.634Z,66.42
2019-01-11T12:46:14.748Z,52.35
2019-01-11T12:47:19.801Z,56.98
2019-01-11T12:48:26.732Z,51.95
2019-01-11T12:49:34.116Z,52.98
2019-01-11T12:50:39.657Z,50.52
2019-01-11T12:51:45.056Z,46.10
2019-01-11T12:52:50.392Z,46.85
2019-01-11T12:53:55.240Z,51.45
2019-01-11T12:55:00.223Z,52.78
2019-01-11T12:56:06.106Z,51.13
2019-01-11T12:57:12.007Z,54.27
2019-01-11T12:58:17.789Z,58.87
2019-01-11T12:59:28.410Z,57.05
2019-01-11T13:00:33.675Z,60.03
2019-01-11T13:01:39.022Z,50.40
2019-01-11T13:02:44.494Z,66.95
2019-01-11T13:03:49.974Z,51.00
2019-01-11T13:04:55.203Z,78.57
2019-01-11T13:06:00.311Z,85.92
2019-01-11T13:07:05.507Z,57.45
2019-01-11T13:08:11.074Z,62.58
2019-01-11T13:09:17.008Z,49.45
2019-01-11T13:10:25.730Z,58.85
2019-01-11T13:11:30.758Z,64.53
2019-01-11T13:12:37.802Z,57.15
2019-01-11T13:13:43.934Z,50.15
2019-01-11T13:14:52.628Z,77.05
2019-01-11T13:16:02.053Z,55.03
2019-01-11T13:17:07.219Z,51.48
2019-01-11T13:18:12.462Z,51.25
2019-01-11T13:19:21.463Z,55.80
2019-01-11T13:20:29.185Z,45.70
2019-01-11T13:21:35.635Z,44.58
2019-01-11T13:22:41.208Z,60.73
2019-01-11T13:23:49.368Z,46.70
2019-01-11T13:24:54.727Z,49.30
2019-01-11T13:25:59.820Z,49.15
2019-01-11T13:27:06.702Z,44.75
2019-01-11T13:28:36.576Z,49.85
2019-01-11T13:29:46.263Z,53.30
2019-01-11T13:30:50.485Z,46.55
2019-01-11T13:31:55.483Z,57.55
2019-01-11T13:33:00.303Z,63.28
2019-01-11T13:34:08.002Z,63.23
2019-01-11T13:35:13.587Z,50.17
2019-01-11T13:36:28.278Z,57.85
2019-01-11T13:37:31.376Z,50.15
2019-01-11T13:38:36.433Z,50.12
2019-01-11T13:39:41.555Z,64.70
2019-01-11T13:40:46.870Z,57.23
2019-01-11T13:41:52.120Z,51.60
2019-01-11T13:43:01.419Z,55.98
2019-01-11T13:44:08.159Z,61.98
2019-01-11T13:45:17.567Z,59.55
2019-01-11T13:46:23.278Z,56.75
2019-01-11T13:47:32.220Z,51.02
2019-01-11T13:48:37.142Z,52.40
2019-01-11T13:49:42.329Z,51.75
2019-01-11T13:50:47.284Z,57.00
2019-01-11T13:51:52.336Z,51.13
2019-01-11T13:52:57.569Z,52.20
2019-01-11T13:54:07.151Z,48.10
2019-01-11T13:55:12.311Z,49.65
2019-01-11T13:56:22.746Z,54.93
2019-01-11T13:57:34.764Z,51.18
2019-01-11T13:58:36.686Z,50.03
2019-01-11T13:59:41.759Z,44.65
2019-01-11T14:00:46.997Z,60.08
2019-01-11T14:02:09.306Z,48.10
2019-01-11T14:03:15.099Z,44.60
2019-01-11T14:04:20.111Z,55.23
2019-01-11T14:05:25.282Z,50.65
2019-01-11T14:06:31.718Z,49.00
2019-01-11T14:07:39.208Z,51.42
2019-01-11T14:08:47.189Z,51.63
2019-01-11T14:09:52.353Z,51.95
2019-01-11T14:11:03.189Z,47.65
2019-01-11T14:12:11.294Z,50.00
2019-01-11T14:13:16.334Z,46.40
2019-01-11T14:14:26.684Z,52.48